createdAt,value
2022-11-17T00:02:25.249Z,7.59
2022-11-17T00:05:40.948Z,7.63
2022-11-17T00:08:58.107Z,7.65
2022-11-17T00:12:27.281Z,7.58
2022-11-17T00:15:45.878Z,7.59
2022-11-17T00:19:13.579Z,7.47
2022-11-17T00:22:16.781Z,7.61
2022-11-17T00:25:19.154Z,7.58
2022-11-17T00:28:31.997Z,7.57
2022-11-17T00:31:58.482Z,7.59
2022-11-17T00:35:00.973Z,7.61
2022-11-17T00:38:20.050Z,7.56
2022-11-17T00:41:27.602Z,7.55
2022-11-17T00:44:41.008Z,7.43
2022-11-17T00:47:43.736Z,7.40
2022-11-17T00:50:46.252Z,7.50
2022-11-17T00:53:49.877Z,7.43
2022-11-17T00:56:58.689Z,7.44
2022-11-17T01:00:05.056Z,7.51
2022-11-17T01:03:10.041Z,7.49
2022-11-17T01:06:35.291Z,7.48
2022-11-17T01:09:43.214Z,7.51
2022-11-17T01:12:55.581Z,7.41
2022-11-17T01:16:02.572Z,7.44
2022-11-17T01:19:08.796Z,7.47
2022-11-17T01:22:11.442Z,7.44
2022-11-17T01:25:14.931Z,7.41
2022-11-17T01:28:17.650Z,7.41
2022-11-17T01:31:28.675Z,7.40
2022-11-17T01:34:31.254Z,7.37
2022-11-17T01:37:33.832Z,7.37
2022-11-17T01:40:37.040Z,7.41
2022-11-17T01:43:45.365Z,7.43
2022-11-17T01:46:55.751Z,7.47
2022-11-17T01:50:09.131Z,7.48
2022-11-17T01:53:15.109Z,7.47
2022-11-17T01:56:21.662Z,7.47
2022-11-17T01:59:36.400Z,7.55
2022-11-17T02:02:40.028Z,7.59
2022-11-17T02:06:01.759Z,7.56
2022-11-17T02:09:04.896Z,7.67
2022-11-17T02:12:13.794Z,7.64
2022-11-17T02:15:20.996Z,7.59
2022-11-17T02:18:24.665Z,7.46
2022-11-17T02:21:38.755Z,7.38
2022-11-17T02:24:58.491Z,7.46
2022-11-17T02:28:13.093Z,7.59
2022-11-17T02:31:25.254Z,7.49
2022-11-17T02:34:54.867Z,7.58
2022-11-17T02:38:21.717Z,7.46
2022-11-17T02:41:25.607Z,7.38
2022-11-17T02:44:39.685Z,7.32
2022-11-17T02:47:44.096Z,7.38
2022-11-17T02:50:48.720Z,7.33
2022-11-17T02:53:57.141Z,7.35
2022-11-17T02:57:02.080Z,7.26
2022-11-17T03:00:16.933Z,7.18
2022-11-17T03:03:39.187Z,7.14
2022-11-17T03:07:01.179Z,7.12
2022-11-17T03:10:19.062Z,7.11
2022-11-17T03:13:38.631Z,7.02
2022-11-17T03:16:50.925Z,6.84
2022-11-17T03:20:03.658Z,6.77
2022-11-17T03:23:12.267Z,6.65
2022-11-17T03:26:22.006Z,6.58
2022-11-17T03:29:27.801Z,6.60
2022-11-17T03:32:39.248Z,6.51
2022-11-17T03:35:49.324Z,6.49
2022-11-17T03:39:00.809Z,6.49
2022-11-17T03:42:16.783Z,6.41
2022-11-17T03:45:24.995Z,6.35
2022-11-17T03:48:37.803Z,6.37
2022-11-17T03:51:42.759Z,6.33
2022-11-17T03:54:46.549Z,6.33
2022-11-17T03:57:48.997Z,6.29
2022-11-17T04:00:54.266Z,6.34
2022-11-17T04:03:57.775Z,6.34
2022-11-17T04:07:01.084Z,6.25
2022-11-17T04:10:07.367Z,6.12
2022-11-17T04:13:28.961Z,5.94
2022-11-17T04:16:32.431Z,5.90
2022-11-17T04:19:42.914Z,5.80
2022-11-17T04:22:45.929Z,5.71
2022-11-17T04:26:08.578Z,5.70
2022-11-17T04:29:11.855Z,5.65
2022-11-17T04:32:14.525Z,5.65
2022-11-17T04:35:16.880Z,5.59
2022-11-17T04:38:21.116Z,5.56
2022-11-17T04:41:43.980Z,5.54
2022-11-17T04:44:46.452Z,5.60
2022-11-17T04:47:55.270Z,5.59
2022-11-17T04:50:57.789Z,5.68
2022-11-17T04:54:02.490Z,5.76
2022-11-17T04:57:05.350Z,5.70
2022-11-17T05:00:08.862Z,5.86
2022-11-17T05:03:11.761Z,6.00
2022-11-17T05:06:19.547Z,6.14
2022-11-17T05:09:22.844Z,6.22
2022-11-17T05:12:44.571Z,6.27
2022-11-17T05:16:08.448Z,6.38
2022-11-17T05:19:19.736Z,6.39
2022-11-17T05:22:46.516Z,6.39
2022-11-17T05:25:49.875Z,6.43
2022-11-17T05:28:52.963Z,6.37
2022-11-17T05:31:55.747Z,6.39
2022-11-17T05:34:59.073Z,6.47
2022-11-17T05:38:01.622Z,6.42
2022-11-17T05:41:06.316Z,6.42
2022-11-17T05:44:08.825Z,6.27
2022-11-17T05:47:11.963Z,6.22
2022-11-17T05:50:15.535Z,6.09
2022-11-17T05:53:19.745Z,5.99
2022-11-17T05:56:22.928Z,5.94
2022-11-17T05:59:35.452Z,5.90
2022-11-17T06:02:41.202Z,5.91
2022-11-17T06:05:44.701Z,5.92
2022-11-17T06:08:47.308Z,5.93
2022-11-17T06:11:50.507Z,5.92
2022-11-17T06:14:55.151Z,5.90
2022-11-17T06:18:02.112Z,5.90
2022-11-17T06:21:05.052Z,5.96
2022-11-17T06:24:08.661Z,5.90
2022-11-17T06:27:13.600Z,5.91
2022-11-17T06:30:17.609Z,5.92
2022-11-17T06:33:21.016Z,5.89
2022-11-17T06:36:25.836Z,5.90
2022-11-17T06:39:29.550Z,6.03
2022-11-17T06:42:55.488Z,6.11
2022-11-17T06:45:58.058Z,6.27
2022-11-17T06:49:01.122Z,6.35
2022-11-17T06:52:04.551Z,6.44
2022-11-17T06:55:11.972Z,6.48
2022-11-17T06:58:15.763Z,6.55
2022-11-17T07:01:19.605Z,6.56
2022-11-17T07:04:25.614Z,6.54
2022-11-17T07:07:28.300Z,6.54
2022-11-17T07:10:32.830Z,6.59
2022-11-17T07:13:37.648Z,6.61
2022-11-17T07:16:44.313Z,6.70
2022-11-17T07:19:48.025Z,6.91
2022-11-17T07:22:50.815Z,7.21
2022-11-17T07:25:54.221Z,7.48
2022-11-17T07:28:57.750Z,7.76
2022-11-17T07:32:00.080Z,8.15
2022-11-17T07:35:02.570Z,8.40
2022-11-17T07:38:07.938Z,8.54
2022-11-17T07:41:14.268Z,8.40
2022-11-17T07:44:16.474Z,8.42
2022-11-17T07:47:19.233Z,8.37
2022-11-17T07:50:24.082Z,8.36
2022-11-17T07:53:28.295Z,8.41
2022-11-17T07:56:31.761Z,8.48
2022-11-17T07:59:35.674Z,8.49
2022-11-17T08:02:39.138Z,8.53
2022-11-17T08:05:43.776Z,8.62
2022-11-17T08:08:48.951Z,8.72
2022-11-17T08:11:53.861Z,8.73
2022-11-17T08:14:58.225Z,8.70
2022-11-17T08:18:02.405Z,8.70
2022-11-17T08:21:15.634Z,8.74
2022-11-17T08:24:19.094Z,8.71
2022-11-17T08:27:22.012Z,8.92
2022-11-17T08:30:30.990Z,9.09
2022-11-17T08:33:36.628Z,9.06
2022-11-17T08:36:43.903Z,9.29
2022-11-17T08:39:47.325Z,9.39
2022-11-17T08:43:03.393Z,9.21
2022-11-17T08:46:11.486Z,9.06
2022-11-17T08:49:16.453Z,9.13
2022-11-17T08:52:23.826Z,9.21
2022-11-17T08:55:27.975Z,9.32
2022-11-17T08:58:31.134Z,9.25
2022-11-17T09:01:34.935Z,9.24
2022-11-17T09:04:37.976Z,9.12
2022-11-17T09:07:40.578Z,9.04
2022-11-17T09:10:45.330Z,8.98
2022-11-17T09:13:52.084Z,8.87
2022-11-17T09:16:54.442Z,8.79
2022-11-17T09:19:56.659Z,8.96
2022-11-17T09:23:03.320Z,8.85
2022-11-17T09:26:16.385Z,8.75
2022-11-17T09:29:19.760Z,8.77
2022-11-17T09:36:02.172Z,8.99
2022-11-17T09:39:14.529Z,9.02
2022-11-17T09:42:49.875Z,9.12
2022-11-17T09:46:15.961Z,9.11
2022-11-17T09:49:55.096Z,9.33
2022-11-17T09:56:50.427Z,9.50
2022-11-17T10:07:04.249Z,9.75
2022-11-17T10:10:41.439Z,9.86
2022-11-17T10:13:54.565Z,9.99
2022-11-17T10:17:48.723Z,9.95
2022-11-17T10:28:03.894Z,9.75
2022-11-17T10:31:22.496Z,9.92
2022-11-17T10:34:43.401Z,9.87
2022-11-17T10:37:53.925Z,9.81
2022-11-17T10:41:04.125Z,9.83
2022-11-17T10:51:39.092Z,10.13
2022-11-17T10:54:41.520Z,10.09
2022-11-17T10:57:47.357Z,10.12
2022-11-17T11:01:03.141Z,10.19
2022-11-17T11:04:51.957Z,10.19
2022-11-17T11:08:21.458Z,10.14
2022-11-17T11:11:46.058Z,10.24
2022-11-17T11:14:59.187Z,10.33
2022-11-17T11:18:15.243Z,10.43
2022-11-17T11:21:46.199Z,10.60
2022-11-17T11:35:38.704Z,10.66
2022-11-17T11:39:07.008Z,10.62
2022-11-17T11:42:12.331Z,10.53
2022-11-17T11:45:15.678Z,10.56
2022-11-17T11:48:22.460Z,10.57
2022-11-17T11:51:41.062Z,10.60
2022-11-17T11:55:04.105Z,10.52
2022-11-17T11:58:37.550Z,10.46
2022-11-17T12:01:42.971Z,10.55
2022-11-17T12:04:51.624Z,10.57
2022-11-17T12:08:07.412Z,10.50
2022-11-17T12:11:35.034Z,10.65
2022-11-17T12:14:38.852Z,10.84
2022-11-17T12:18:01.488Z,11.01
2022-11-17T12:21:06.907Z,11.04
2022-11-17T12:24:41.667Z,11.02
2022-11-17T12:27:44.055Z,10.99
2022-11-17T12:30:59.318Z,10.99
2022-11-17T12:34:15.772Z,10.84
2022-11-17T12:37:27.358Z,10.84
2022-11-17T12:40:55.703Z,10.72
2022-11-17T12:44:22.669Z,10.74
2022-11-17T12:47:39.912Z,10.99
2022-11-17T12:51:08.389Z,11.18
2022-11-17T12:54:15.769Z,11.12
2022-11-17T12:57:27.885Z,11.21
2022-11-17T13:00:35.171Z,11.00
2022-11-17T13:03:46.211Z,10.78
2022-11-17T13:07:06.660Z,10.56
2022-11-17T13:10:28.389Z,10.38
2022-11-17T13:13:30.264Z,10.21
2022-11-17T13:16:44.101Z,10.25
2022-11-17T13:20:10.790Z,10.19
2022-11-17T13:23:33.577Z,10.21
2022-11-17T13:26:41.816Z,10.40
2022-11-17T13:30:15.130Z,10.40
2022-11-17T13:33:39.994Z,10.33
2022-11-17T13:37:10.910Z,10.42
2022-11-17T13:40:26.837Z,10.50
2022-11-17T13:43:37.319Z,10.45
2022-11-17T13:46:53.595Z,10.49
2022-11-17T13:50:16.343Z,10.41
2022-11-17T13:53:47.845Z,10.22
2022-11-17T13:56:59.004Z,10.12
2022-11-17T14:00:12.939Z,10.06
2022-11-17T14:03:48.865Z,10.10
2022-11-17T14:07:08.253Z,10.05
2022-11-17T14:10:20.180Z,10.01
2022-11-17T14:13:24.566Z,10.07
2022-11-17T14:16:36.754Z,10.06
2022-11-17T14:20:06.085Z,10.11
2022-11-17T14:23:09.003Z,10.18
2022-11-17T14:26:30.761Z,10.19
2022-11-17T14:29:50.742Z,10.14
2022-11-17T14:33:14.890Z,10.02
2022-11-17T14:36:18.229Z,9.92
2022-11-17T14:39:25.631Z,9.86
2022-11-17T14:42:37.197Z,9.75
2022-11-17T14:45:58.875Z,9.72
2022-11-17T14:49:10.024Z,9.67
2022-11-17T14:52:13.782Z,9.61
2022-11-17T14:55:23.013Z,9.58
2022-11-17T14:58:29.663Z,9.56
2022-11-17T15:01:43.353Z,9.55
2022-11-17T15:04:51.403Z,9.48
2022-11-17T15:08:02.581Z,9.47
2022-11-17T15:11:15.704Z,9.44
2022-11-17T15:14:35.220Z,9.33
2022-11-17T15:17:38.127Z,9.26
2022-11-17T15:20:45.367Z,9.18
2022-11-17T15:24:13.678Z,9.14
2022-11-17T15:27:18.793Z,9.22
2022-11-17T15:30:24.356Z,9.16
2022-11-17T15:33:36.750Z,9.16
2022-11-17T15:36:44.647Z,9.19
2022-11-17T15:40:00.849Z,9.18
2022-11-17T15:43:19.655Z,9.16
2022-11-17T15:46:52.896Z,9.07
2022-11-17T15:50:02.092Z,8.96
2022-11-17T15:53:15.969Z,8.88
2022-11-17T15:56:32.507Z,8.80
2022-11-17T16:03:51.305Z,8.76
2022-11-17T16:07:06.081Z,8.72
2022-11-17T16:10:13.491Z,8.72
2022-11-17T16:13:15.762Z,8.75
2022-11-17T16:16:19.761Z,8.79
2022-11-17T16:19:25.920Z,8.82
2022-11-17T16:22:45.515Z,8.88
2022-11-17T16:26:05.948Z,8.95
2022-11-17T16:29:12.956Z,8.98
2022-11-17T16:32:20.305Z,9.03
2022-11-17T16:35:33.744Z,9.10
2022-11-17T16:39:00.507Z,9.09
2022-11-17T16:45:52.268Z,9.20
2022-11-17T16:48:55.744Z,9.25
2022-11-17T16:52:11.572Z,9.23
2022-11-17T16:55:13.912Z,9.27
2022-11-17T16:58:33.809Z,9.36
2022-11-17T17:01:36.288Z,9.38
2022-11-17T17:04:39.688Z,9.42
2022-11-17T17:07:43.069Z,9.36
2022-11-17T17:10:57.028Z,9.37
2022-11-17T17:14:00.841Z,9.43
2022-11-17T17:17:20.965Z,9.34
2022-11-17T17:20:41.662Z,9.29
2022-11-17T17:23:46.467Z,9.34
2022-11-17T17:27:03.082Z,9.37
2022-11-17T17:30:07.706Z,9.36
2022-11-17T17:33:10.317Z,9.29
2022-11-17T17:43:21.984Z,9.27
2022-11-17T17:46:33.922Z,9.21
2022-11-17T17:49:46.949Z,9.33
2022-11-17T17:52:55.903Z,9.21
2022-11-17T17:56:26.290Z,9.23
2022-11-17T17:59:36.562Z,9.21
2022-11-17T18:02:39.393Z,9.22
2022-11-17T18:05:45.380Z,9.18
2022-11-17T18:08:59.275Z,9.20
2022-11-17T18:15:40.433Z,9.21
2022-11-17T18:19:00.200Z,9.15
2022-11-17T18:22:08.894Z,9.10
2022-11-17T18:25:15.181Z,9.12
2022-11-17T18:28:27.937Z,9.18
2022-11-17T18:31:47.834Z,9.28
2022-11-17T18:38:21.171Z,9.32
2022-11-17T18:41:34.889Z,9.38
2022-11-17T18:44:38.171Z,9.38
2022-11-17T18:48:10.999Z,9.32
2022-11-17T18:51:19.513Z,9.22
2022-11-17T18:54:50.058Z,9.02
2022-11-17T18:58:24.577Z,8.97
2022-11-17T19:01:50.996Z,8.83
2022-11-17T19:08:54.874Z,8.72
2022-11-17T19:11:58.454Z,8.67
2022-11-17T19:15:00.526Z,8.64
2022-11-17T19:21:27.123Z,8.64
2022-11-17T19:24:59.349Z,8.63
2022-11-17T19:28:02.176Z,8.75
2022-11-17T19:31:31.930Z,8.72
2022-11-17T19:34:45.248Z,8.87
2022-11-17T19:37:47.253Z,8.94
2022-11-17T19:40:49.629Z,8.91
2022-11-17T19:44:01.625Z,8.89
2022-11-17T19:47:19.866Z,8.92
2022-11-17T19:50:35.930Z,8.83
2022-11-17T19:53:40.781Z,8.75
2022-11-17T19:56:43.009Z,8.80
2022-11-17T20:00:03.655Z,8.78
2022-11-17T20:03:08.294Z,8.72
2022-11-17T20:06:21.008Z,8.63
2022-11-17T20:09:48.925Z,8.60
2022-11-17T20:12:55.270Z,8.53
2022-11-17T20:23:01.118Z,8.50
2022-11-17T20:26:42.396Z,8.44
2022-11-17T20:29:51.977Z,8.43
2022-11-17T20:33:04.064Z,8.45
2022-11-17T20:40:02.895Z,8.44
2022-11-17T20:43:22.233Z,8.35
2022-11-17T20:46:25.762Z,8.34
2022-11-17T20:49:29.413Z,8.29
2022-11-17T20:52:44.129Z,8.21
2022-11-17T20:55:47.005Z,8.17
2022-11-17T20:59:06.857Z,8.20
2022-11-17T21:02:14.996Z,8.27
2022-11-17T21:09:14.562Z,8.20
2022-11-17T21:12:19.348Z,8.29
2022-11-17T21:15:32.397Z,8.15
2022-11-17T21:18:47.122Z,8.11
2022-11-17T21:22:11.528Z,8.05
2022-11-17T21:25:23.334Z,8.03
2022-11-17T21:28:33.073Z,8.02
2022-11-17T21:31:45.210Z,8.00
2022-11-17T21:34:49.851Z,7.98
2022-11-17T21:38:06.671Z,7.96
2022-11-17T21:41:22.015Z,8.00
2022-11-17T21:44:30.936Z,8.00
2022-11-17T22:01:01.744Z,7.81
2022-11-17T22:04:05.997Z,7.81
2022-11-17T22:07:22.250Z,7.83
2022-11-17T22:10:28.080Z,7.82
2022-11-17T22:13:30.565Z,7.78
2022-11-17T22:16:39.435Z,7.73
2022-11-17T22:19:42.311Z,7.71
2022-11-17T22:23:00.379Z,7.71
2022-11-17T22:26:20.562Z,7.67
2022-11-17T22:29:23.326Z,7.58
2022-11-17T22:32:34.706Z,7.50
2022-11-17T22:36:33.659Z,7.45
2022-11-17T22:39:49.933Z,7.43
2022-11-17T22:43:04.572Z,7.38
2022-11-17T22:46:16.001Z,7.41
2022-11-17T22:49:21.814Z,7.44
2022-11-17T23:48:44.599Z,6.76
2022-11-17T23:51:48.283Z,6.75
2022-11-17T23:54:50.559Z,6.78
2022-11-17T23:57:52.824Z,6.67
